createdAt,value
2018-02-19T00:00:07.208Z,39.43
2018-02-19T00:02:38.846Z,36.83
2018-02-19T00:05:10.022Z,38.60
2018-02-19T00:07:40.747Z,38.60
2018-02-19T00:10:12.575Z,36.77
2018-02-19T00:12:43.383Z,37.07
2018-02-19T00:15:14.258Z,37.70
2018-02-19T00:17:45.058Z,35.90
2018-02-19T00:20:15.960Z,35.47
2018-02-19T00:22:47.106Z,35.77
2018-02-19T00:25:17.907Z,35.40
2018-02-19T00:27:48.575Z,35.03
2018-02-19T00:30:19.482Z,36.00
2018-02-19T00:32:49.958Z,33.87
2018-02-19T00:35:20.831Z,34.17
2018-02-19T00:37:51.626Z,34.20
2018-02-19T00:40:22.288Z,34.50
2018-02-19T00:42:53.050Z,36.47
2018-02-19T00:45:23.743Z,34.50
2018-02-19T00:47:54.622Z,32.57
2018-02-19T00:50:26.339Z,30.40
2018-02-19T00:52:57.107Z,31.10
2018-02-19T00:55:27.971Z,30.10
2018-02-19T00:57:59.531Z,29.20
2018-02-19T01:00:30.218Z,29.67
2018-02-19T01:03:01.087Z,28.90
2018-02-19T01:05:32.265Z,29.03
2018-02-19T01:08:03.067Z,28.77
2018-02-19T01:10:34.740Z,29.53
2018-02-19T01:13:05.575Z,28.70
2018-02-19T01:15:36.287Z,29.33
2018-02-19T01:18:07.823Z,30.80
2018-02-19T01:20:38.579Z,33.60
2018-02-19T01:23:10.306Z,30.87
2018-02-19T01:25:41.201Z,29.10
2018-02-19T01:28:12.137Z,30.23
2018-02-19T01:30:43.110Z,30.20
2018-02-19T01:33:13.769Z,31.03
2018-02-19T01:35:46.854Z,31.10
2018-02-19T01:38:18.494Z,31.37
2018-02-19T01:40:49.454Z,31.73
2018-02-19T01:43:21.062Z,29.40
2018-02-19T01:45:52.066Z,31.43
2018-02-19T01:48:23.478Z,30.87
2018-02-19T01:50:54.389Z,33.03
2018-02-19T01:53:25.257Z,33.10
2018-02-19T01:58:33.074Z,31.03
2018-02-19T02:01:03.815Z,30.80
2018-02-19T02:03:34.657Z,30.43
2018-02-19T02:06:06.436Z,31.57
2018-02-19T02:08:37.414Z,29.80
2018-02-19T02:11:08.405Z,32.50
2018-02-19T02:13:40.065Z,32.13
2018-02-19T02:16:11.517Z,31.67
2018-02-19T02:18:43.039Z,30.07
2018-02-19T02:21:13.744Z,32.40
2018-02-19T02:23:45.089Z,31.70
2018-02-19T02:26:15.814Z,30.87
2018-02-19T02:28:46.330Z,30.30
2018-02-19T02:31:17.080Z,31.10
2018-02-19T02:33:47.965Z,30.70
2018-02-19T02:36:18.760Z,32.03
2018-02-19T02:38:49.475Z,29.17
2018-02-19T02:41:20.218Z,31.00
2018-02-19T02:43:51.066Z,30.10
2018-02-19T02:46:21.888Z,32.17
2018-02-19T02:48:52.734Z,32.70
2018-02-19T02:51:23.687Z,29.30
2018-02-19T02:53:55.590Z,31.77
2018-02-19T02:56:27.281Z,28.63
2018-02-19T02:58:58.499Z,29.07
2018-02-19T03:01:30.248Z,28.37
2018-02-19T03:04:01.882Z,29.90
2018-02-19T03:06:32.737Z,30.10
2018-02-19T03:09:04.406Z,30.13
2018-02-19T03:11:35.949Z,29.50
2018-02-19T03:14:07.482Z,28.70
2018-02-19T03:16:38.294Z,30.37
2018-02-19T03:19:09.042Z,29.47
2018-02-19T03:21:39.919Z,30.17
2018-02-19T03:24:12.235Z,28.80
2018-02-19T03:26:43.110Z,29.37
2018-02-19T03:29:14.731Z,28.43
2018-02-19T03:31:45.550Z,28.43
2018-02-19T03:34:17.093Z,30.07
2018-02-19T03:36:48.362Z,30.40
2018-02-19T03:39:19.306Z,27.90
2018-02-19T03:41:50.203Z,27.97
2018-02-19T03:44:21.154Z,27.93
2018-02-19T03:46:51.997Z,28.10
2018-02-19T03:49:22.898Z,27.07
2018-02-19T03:51:54.428Z,29.20
2018-02-19T03:54:25.154Z,27.40
2018-02-19T03:56:56.024Z,27.60
2018-02-19T03:59:27.641Z,30.83
2018-02-19T04:01:58.285Z,28.53
2018-02-19T04:04:29.787Z,27.77
2018-02-19T04:07:00.601Z,29.20
2018-02-19T04:09:32.190Z,29.80
2018-02-19T04:12:02.909Z,29.53
2018-02-19T04:14:33.807Z,29.07
2018-02-19T04:17:04.743Z,29.33
2018-02-19T04:19:35.338Z,31.77
2018-02-19T04:22:06.101Z,30.20
2018-02-19T04:24:36.798Z,30.23
2018-02-19T04:27:07.644Z,32.03
2018-02-19T04:29:38.466Z,30.07
2018-02-19T04:32:09.567Z,29.37
2018-02-19T04:34:41.567Z,29.03
2018-02-19T04:37:12.407Z,29.20
2018-02-19T04:39:43.271Z,28.67
2018-02-19T04:42:14.079Z,31.03
2018-02-19T04:44:55.704Z,28.13
2018-02-19T04:47:27.491Z,28.37
2018-02-19T04:49:59.039Z,26.77
2018-02-19T04:52:30.597Z,27.47
2018-02-19T04:55:02.318Z,26.37
2018-02-19T04:57:32.910Z,26.20
2018-02-19T05:00:03.622Z,25.77
2018-02-19T05:02:35.318Z,27.83
2018-02-19T05:05:06.227Z,28.40
2018-02-19T05:07:37.038Z,27.57
2018-02-19T05:10:09.006Z,29.43
2018-02-19T05:12:40.755Z,27.63
2018-02-19T05:15:11.675Z,28.40
2018-02-19T05:17:42.616Z,28.37
2018-02-19T05:20:14.097Z,28.07
2018-02-19T05:22:45.538Z,29.77
2018-02-19T05:25:17.184Z,27.50
2018-02-19T05:27:48.021Z,28.23
2018-02-19T05:30:18.910Z,28.80
2018-02-19T05:32:50.202Z,27.80
2018-02-19T05:35:21.016Z,28.20
2018-02-19T05:37:51.878Z,28.97
2018-02-19T05:40:23.174Z,26.40
2018-02-19T05:42:54.665Z,27.47
2018-02-19T05:45:25.795Z,27.17
2018-02-19T05:47:56.681Z,25.87
2018-02-19T05:50:28.325Z,26.80
2018-02-19T05:53:00.135Z,27.00
2018-02-19T05:55:31.309Z,25.70
2018-02-19T05:58:02.382Z,25.97
2018-02-19T06:00:33.955Z,28.00
2018-02-19T06:03:04.834Z,27.70
2018-02-19T06:05:35.658Z,28.20
2018-02-19T06:08:06.351Z,28.03
2018-02-19T06:10:36.977Z,28.50
2018-02-19T06:13:07.992Z,28.50
2018-02-19T06:15:40.487Z,28.30
2018-02-19T06:18:11.408Z,28.57
2018-02-19T06:20:42.877Z,29.10
2018-02-19T06:23:13.802Z,28.57
2018-02-19T06:25:45.502Z,26.50
2018-02-19T06:28:16.292Z,28.00
2018-02-19T06:30:47.084Z,27.17
2018-02-19T06:33:18.491Z,26.53
2018-02-19T06:35:50.808Z,26.33
2018-02-19T06:38:21.343Z,26.90
2018-02-19T06:40:52.181Z,27.00
2018-02-19T06:43:23.134Z,26.23
2018-02-19T06:45:53.999Z,25.70
2018-02-19T06:48:25.731Z,27.17
2018-02-19T06:50:56.665Z,26.90
2018-02-19T06:53:27.506Z,25.70
2018-02-19T06:55:59.690Z,27.87
2018-02-19T06:58:31.227Z,27.87
2018-02-19T07:01:01.907Z,26.93
2018-02-19T07:03:32.443Z,28.47
2018-02-19T07:06:04.661Z,27.43
2018-02-19T07:08:36.118Z,29.33
2018-02-19T07:11:14.918Z,30.00
2018-02-19T07:13:46.074Z,29.43
2018-02-19T07:16:16.825Z,27.97
2018-02-19T07:18:48.855Z,29.40
2018-02-19T07:21:19.643Z,30.97
2018-02-19T07:23:50.517Z,29.83
2018-02-19T07:26:21.450Z,28.13
2018-02-19T07:28:52.265Z,27.77
2018-02-19T07:31:23.178Z,26.13
2018-02-19T07:33:54.738Z,26.97
2018-02-19T07:36:26.277Z,26.83
2018-02-19T07:38:57.930Z,27.60
2018-02-19T07:41:29.538Z,26.90
2018-02-19T07:44:01.034Z,27.50
2018-02-19T07:46:32.217Z,25.70
2018-02-19T07:49:03.223Z,27.23
2018-02-19T07:51:35.291Z,26.87
2018-02-19T07:54:06.834Z,25.53
2018-02-19T07:56:39.410Z,26.80
2018-02-19T07:59:11.112Z,24.77
2018-02-19T08:01:41.894Z,25.30
2018-02-19T08:04:13.002Z,24.17
2018-02-19T08:06:43.771Z,25.23
2018-02-19T08:09:14.649Z,23.60
2018-02-19T08:11:45.824Z,24.10
2018-02-19T08:14:17.310Z,22.93
2018-02-19T08:16:48.156Z,22.93
2018-02-19T08:19:18.941Z,23.60
2018-02-19T08:21:49.705Z,20.63
2018-02-19T08:24:20.744Z,22.17
2018-02-19T08:26:51.680Z,22.00
2018-02-19T08:29:22.837Z,21.27
2018-02-19T08:31:53.627Z,23.47
2018-02-19T08:34:24.533Z,22.60
2018-02-19T08:36:56.055Z,22.57
2018-02-19T08:39:26.950Z,23.33
2018-02-19T08:41:57.799Z,22.67
2018-02-19T08:44:28.622Z,22.00
2018-02-19T08:46:59.533Z,21.70
2018-02-19T08:49:31.993Z,23.47
2018-02-19T08:52:03.531Z,23.47
2018-02-19T08:54:34.375Z,22.40
2018-02-19T08:57:05.312Z,22.17
2018-02-19T08:59:36.308Z,22.87
2018-02-19T09:02:07.812Z,23.60
2018-02-19T09:04:38.902Z,24.70
2018-02-19T09:07:09.391Z,22.80
2018-02-19T09:09:40.631Z,22.60
2018-02-19T09:12:12.018Z,24.27
2018-02-19T09:14:42.813Z,24.70
2018-02-19T09:17:14.243Z,21.90
2018-02-19T09:19:45.906Z,23.90
2018-02-19T09:22:16.577Z,22.53
2018-02-19T09:24:47.494Z,22.10
2018-02-19T09:27:18.742Z,22.03
2018-02-19T09:29:50.397Z,22.33
2018-02-19T09:32:21.842Z,22.40
2018-02-19T09:34:53.459Z,23.53
2018-02-19T09:37:24.214Z,22.47
2018-02-19T09:39:55.008Z,23.03
2018-02-19T09:42:26.065Z,22.60
2018-02-19T09:44:56.994Z,24.00
2018-02-19T09:47:27.786Z,22.23
2018-02-19T09:50:00.995Z,22.13
2018-02-19T09:52:31.467Z,21.30
2018-02-19T09:55:02.286Z,22.20
2018-02-19T09:57:33.151Z,23.33
2018-02-19T10:00:04.019Z,23.10
2018-02-19T10:02:35.482Z,22.00
2018-02-19T10:05:06.242Z,21.90
2018-02-19T10:07:37.121Z,23.73
2018-02-19T10:10:08.755Z,21.63
2018-02-19T10:12:39.738Z,22.93
2018-02-19T10:15:11.336Z,21.00
2018-02-19T10:17:42.352Z,21.63
2018-02-19T10:20:13.829Z,21.80
2018-02-19T10:22:44.703Z,24.70
2018-02-19T10:25:15.390Z,25.13
2018-02-19T10:27:46.254Z,26.07
2018-02-19T10:30:17.118Z,30.00
2018-02-19T10:32:48.664Z,28.47
2018-02-19T10:35:20.278Z,30.07
2018-02-19T10:37:51.053Z,29.80
2018-02-19T10:40:22.662Z,27.70
2018-02-19T10:42:53.731Z,28.43
2018-02-19T10:45:24.603Z,28.70
2018-02-19T10:47:56.338Z,28.97
2018-02-19T10:50:27.071Z,30.60
2018-02-19T10:52:58.002Z,30.97
2018-02-19T10:55:28.708Z,40.63
2018-02-19T10:57:59.460Z,38.57
2018-02-19T11:00:35.146Z,49.00
2018-02-19T11:03:06.642Z,46.80
2018-02-19T11:05:37.437Z,31.97
2018-02-19T11:08:09.152Z,31.97
2018-02-19T11:10:39.818Z,32.27
2018-02-19T11:13:11.599Z,30.43
2018-02-19T11:15:42.052Z,30.80
2018-02-19T11:18:12.442Z,30.10
2018-02-19T11:20:42.890Z,30.87
2018-02-19T11:23:13.283Z,31.73
2018-02-19T11:25:45.038Z,31.40
2018-02-19T11:28:17.855Z,31.90
2018-02-19T11:30:48.448Z,32.20
2018-02-19T11:33:21.050Z,31.50
2018-02-19T11:35:52.029Z,32.57
2018-02-19T11:38:23.819Z,30.80
2018-02-19T11:40:55.225Z,31.60
2018-02-19T11:43:26.215Z,30.77
2018-02-19T11:45:57.992Z,30.73
2018-02-19T11:48:28.733Z,30.90
2018-02-19T11:50:59.430Z,30.13
2018-02-19T11:53:32.728Z,30.30
2018-02-19T11:56:03.797Z,31.03
2018-02-19T11:58:34.538Z,31.63
2018-02-19T12:01:05.571Z,31.87
2018-02-19T12:03:36.563Z,32.47
2018-02-19T12:06:07.320Z,33.27
2018-02-19T12:08:39.084Z,31.83
2018-02-19T12:14:31.986Z,31.40
2018-02-19T12:17:02.967Z,33.43
2018-02-19T12:19:33.935Z,31.30
2018-02-19T12:22:05.707Z,31.30
2018-02-19T12:24:37.483Z,31.43
2018-02-19T12:27:08.258Z,31.23
2018-02-19T12:29:38.858Z,30.53
2018-02-19T12:32:09.756Z,30.67
2018-02-19T12:34:41.378Z,31.30
2018-02-19T12:37:12.130Z,31.37
2018-02-19T12:39:43.383Z,34.53
2018-02-19T12:42:15.054Z,34.33
2018-02-19T12:44:46.658Z,39.07
2018-02-19T12:47:17.393Z,42.67
2018-02-19T12:49:48.007Z,42.23
2018-02-19T12:52:18.855Z,40.70
2018-02-19T12:54:49.618Z,35.77
2018-02-19T12:57:20.317Z,35.30
2018-02-19T12:59:51.136Z,32.97
2018-02-19T13:02:22.230Z,31.80
2018-02-19T13:04:53.766Z,30.97
2018-02-19T13:07:25.283Z,32.73
2018-02-19T13:09:56.062Z,31.60
2018-02-19T13:12:27.163Z,31.90
2018-02-19T13:14:58.206Z,31.73
2018-02-19T13:17:29.122Z,29.77
2018-02-19T13:19:59.836Z,32.40
2018-02-19T13:22:31.380Z,30.50
2018-02-19T13:25:02.003Z,28.90
2018-02-19T13:27:32.714Z,29.90
2018-02-19T13:30:03.214Z,28.50
2018-02-19T13:32:34.010Z,30.10
2018-02-19T13:35:04.452Z,29.13
2018-02-19T13:37:36.083Z,29.17
2018-02-19T13:40:06.804Z,28.43
2018-02-19T13:42:37.625Z,29.03
2018-02-19T13:45:08.723Z,29.67
2018-02-19T13:47:40.489Z,27.40
2018-02-19T13:50:11.133Z,27.80
2018-02-19T13:52:41.905Z,30.20
2018-02-19T13:55:12.866Z,29.60
2018-02-19T13:57:43.762Z,29.77
2018-02-19T14:00:14.805Z,28.30
2018-02-19T14:02:45.937Z,29.53
2018-02-19T14:05:16.757Z,28.20
2018-02-19T14:07:47.585Z,28.20
2018-02-19T14:10:18.343Z,27.80
2018-02-19T14:12:49.499Z,27.73
2018-02-19T14:15:20.924Z,27.77
2018-02-19T14:17:51.505Z,27.70
2018-02-19T14:20:22.429Z,25.97
2018-02-19T14:22:53.234Z,27.37
2018-02-19T14:25:24.130Z,26.70
2018-02-19T14:27:55.015Z,27.47
2018-02-19T14:30:25.817Z,24.17
2018-02-19T14:32:57.394Z,22.00
2018-02-19T14:35:28.005Z,21.43
2018-02-19T14:38:00.291Z,20.10
2018-02-19T14:40:30.945Z,19.10
2018-02-19T14:43:01.974Z,17.63
2018-02-19T14:45:32.906Z,17.90
2018-02-19T14:48:03.815Z,16.83
2018-02-19T14:50:35.411Z,15.10
2018-02-19T14:53:06.241Z,15.10
2018-02-19T14:55:36.846Z,13.73
2018-02-19T14:58:08.493Z,15.73
2018-02-19T15:00:42.521Z,15.60
2018-02-19T15:03:13.242Z,14.60
2018-02-19T15:05:44.691Z,14.60
2018-02-19T15:08:15.528Z,14.07
2018-02-19T15:10:47.087Z,14.30
2018-02-19T15:13:19.050Z,13.90
2018-02-19T15:15:50.659Z,26.77
2018-02-19T15:18:22.008Z,30.73
2018-02-19T15:20:52.944Z,31.77
2018-02-19T15:23:23.832Z,29.20
2018-02-19T15:25:55.449Z,28.43
2018-02-19T15:28:26.544Z,31.10
2018-02-19T15:30:57.442Z,29.17
2018-02-19T15:33:28.586Z,34.13
2018-02-19T15:35:59.709Z,35.07
2018-02-19T15:38:30.671Z,34.13
2018-02-19T15:41:02.350Z,37.37
2018-02-19T15:43:34.063Z,39.10
2018-02-19T15:46:04.767Z,40.13
2018-02-19T15:48:35.457Z,40.17
2018-02-19T15:51:07.211Z,40.60
2018-02-19T15:53:38.826Z,40.10
2018-02-19T15:56:09.683Z,40.27
2018-02-19T15:58:40.648Z,39.90
2018-02-19T16:01:12.410Z,42.20
2018-02-19T16:03:44.640Z,37.50
2018-02-19T16:06:15.786Z,41.60
2018-02-19T16:08:46.617Z,40.57
2018-02-19T16:11:17.388Z,33.90
2018-02-19T16:13:49.023Z,33.00
2018-02-19T16:16:20.838Z,31.70
2018-02-19T16:18:52.531Z,33.17
2018-02-19T16:21:23.374Z,32.67
2018-02-19T16:23:54.297Z,29.50
2018-02-19T16:26:25.244Z,27.47
2018-02-19T16:28:56.515Z,27.83
2018-02-19T16:31:29.822Z,26.60
2018-02-19T16:34:01.477Z,27.50
2018-02-19T16:36:33.196Z,27.97
2018-02-19T16:39:04.181Z,28.53
2018-02-19T16:41:36.007Z,27.57
2018-02-19T16:44:06.798Z,27.23
2018-02-19T16:46:37.959Z,27.80
2018-02-19T16:49:08.911Z,28.23
2018-02-19T16:51:39.699Z,29.90
2018-02-19T16:54:11.348Z,28.87
2018-02-19T16:56:42.986Z,28.30
2018-02-19T16:59:14.626Z,27.43
2018-02-19T17:01:45.441Z,26.73
2018-02-19T17:04:16.310Z,26.00
2018-02-19T17:06:47.215Z,26.00
2018-02-19T17:09:18.768Z,23.80
2018-02-19T17:11:49.841Z,25.20
2018-02-19T17:14:20.502Z,26.40
2018-02-19T17:16:51.406Z,23.40
2018-02-19T17:19:22.116Z,22.13
2018-02-19T17:21:53.418Z,22.00
2018-02-19T17:24:24.935Z,19.07
2018-02-19T17:26:55.804Z,20.33
2018-02-19T17:29:27.361Z,17.80
2018-02-19T17:31:58.082Z,19.70
2018-02-19T17:34:29.835Z,18.37
2018-02-19T17:37:01.509Z,18.80
2018-02-19T17:39:32.374Z,20.40
2018-02-19T17:42:03.861Z,18.40
2018-02-19T17:44:34.777Z,16.83
2018-02-19T17:47:05.647Z,17.43
2018-02-19T17:49:36.595Z,17.33
2018-02-19T17:52:08.199Z,17.77
2018-02-19T17:54:39.082Z,19.07
2018-02-19T17:57:10.594Z,19.40
2018-02-19T17:59:41.482Z,19.90
2018-02-19T18:02:12.893Z,18.80
2018-02-19T18:04:43.896Z,19.00
2018-02-19T18:07:14.477Z,19.00
2018-02-19T18:09:45.146Z,17.83
2018-02-19T18:12:15.749Z,18.37
2018-02-19T18:14:46.484Z,18.37
2018-02-19T18:17:18.182Z,18.37
2018-02-19T18:19:49.439Z,17.60
2018-02-19T18:22:20.219Z,17.50
2018-02-19T18:24:51.870Z,17.70
2018-02-19T18:27:22.848Z,17.20
2018-02-19T18:29:53.669Z,14.83
2018-02-19T18:32:25.266Z,17.23
2018-02-19T18:34:56.050Z,15.27
2018-02-19T18:37:27.794Z,16.80
2018-02-19T18:39:59.368Z,16.20
2018-02-19T18:42:31.274Z,17.33
2018-02-19T18:45:02.132Z,16.87
2018-02-19T18:47:33.063Z,17.43
2018-02-19T18:50:03.986Z,16.60
2018-02-19T18:52:35.092Z,16.53
2018-02-19T18:55:05.720Z,14.00
2018-02-19T18:57:37.331Z,13.63
2018-02-19T19:00:08.441Z,13.67
2018-02-19T19:02:39.519Z,13.00
2018-02-19T19:05:10.374Z,11.87
2018-02-19T19:07:51.855Z,13.23
2018-02-19T19:10:34.280Z,13.60
2018-02-19T19:13:05.755Z,13.83
2018-02-19T19:15:36.646Z,11.90
2018-02-19T19:18:07.174Z,11.90
2018-02-19T19:20:38.086Z,12.57
2018-02-19T19:23:08.870Z,13.70
2018-02-19T19:25:40.594Z,12.30
2018-02-19T19:28:11.415Z,13.53
2018-02-19T19:30:42.165Z,13.10
2018-02-19T19:33:13.088Z,13.70
2018-02-19T19:35:43.939Z,15.17
2018-02-19T19:38:15.014Z,14.20
2018-02-19T19:40:46.645Z,15.30
2018-02-19T19:43:17.526Z,14.50
2018-02-19T19:45:48.175Z,14.90
2018-02-19T19:48:19.056Z,16.00
2018-02-19T19:50:49.756Z,15.60
2018-02-19T19:53:21.717Z,15.67
2018-02-19T19:55:52.659Z,15.43
2018-02-19T19:58:23.554Z,16.30
2018-02-19T20:00:54.447Z,15.70
2018-02-19T20:03:25.199Z,16.70
2018-02-19T20:05:56.009Z,16.97
2018-02-19T20:08:27.150Z,16.47
2018-02-19T20:10:58.005Z,17.03
2018-02-19T20:13:28.754Z,16.37
2018-02-19T20:15:59.652Z,17.70
2018-02-19T20:18:30.662Z,17.60
2018-02-19T20:21:01.431Z,17.13
2018-02-19T20:23:32.811Z,16.07
2018-02-19T20:26:03.847Z,16.77
2018-02-19T20:28:35.282Z,16.90
2018-02-19T20:31:06.226Z,15.93
2018-02-19T20:33:37.102Z,17.90
2018-02-19T20:36:08.765Z,16.57
2018-02-19T20:38:40.418Z,15.53
2018-02-19T20:41:12.023Z,15.70
2018-02-19T20:43:42.982Z,14.60
2018-02-19T20:46:13.943Z,16.70
2018-02-19T20:48:45.862Z,15.13
2018-02-19T20:51:16.682Z,14.37
2018-02-19T20:53:47.473Z,14.80
2018-02-19T20:56:18.321Z,16.27
2018-02-19T20:58:49.944Z,16.03
2018-02-19T21:01:21.786Z,15.10
2018-02-19T21:03:52.485Z,16.43
2018-02-19T21:06:23.273Z,16.53
2018-02-19T21:08:54.371Z,15.47
2018-02-19T21:11:25.453Z,16.40
2018-02-19T21:13:56.406Z,14.90
2018-02-19T21:16:27.251Z,15.57
2018-02-19T21:18:58.836Z,15.80
2018-02-19T21:21:29.627Z,17.07
2018-02-19T21:24:00.186Z,16.83
2018-02-19T21:26:31.005Z,17.90
2018-02-19T21:29:02.658Z,18.43
2018-02-19T21:31:34.255Z,19.27
2018-02-19T21:34:05.122Z,20.73
2018-02-19T21:36:35.998Z,20.00
2018-02-19T21:39:07.738Z,21.43
2018-02-19T21:41:38.742Z,21.23
2018-02-19T21:44:09.682Z,21.10
2018-02-19T21:46:41.502Z,21.57
2018-02-19T21:49:12.421Z,22.97
2018-02-19T21:51:43.946Z,24.40
2018-02-19T21:54:14.845Z,26.40
2018-02-19T21:56:45.743Z,25.13
2018-02-19T21:59:17.279Z,26.47
2018-02-19T22:01:48.105Z,26.23
2018-02-19T22:04:18.709Z,24.57
2018-02-19T22:06:49.587Z,24.50
2018-02-19T22:09:20.675Z,27.67
2018-02-19T22:11:51.414Z,26.90
2018-02-19T22:14:22.367Z,27.30
2018-02-19T22:16:53.350Z,26.77
2018-02-19T22:19:24.260Z,27.80
2018-02-19T22:21:55.166Z,24.77
2018-02-19T22:24:25.927Z,24.70
2018-02-19T22:26:56.647Z,26.27
2018-02-19T22:29:27.523Z,26.83
2018-02-19T22:31:59.123Z,25.37
2018-02-19T22:34:29.903Z,27.37
2018-02-19T22:37:00.812Z,26.97
2018-02-19T22:39:31.379Z,26.93
2018-02-19T22:42:02.335Z,28.30
2018-02-19T22:44:33.894Z,27.03
2018-02-19T22:47:05.615Z,28.30
2018-02-19T22:49:36.564Z,27.03
2018-02-19T22:52:07.340Z,26.77
2018-02-19T22:54:38.046Z,26.47
2018-02-19T22:57:09.410Z,25.23
2018-02-19T22:59:39.989Z,26.33
2018-02-19T23:02:10.629Z,25.20
2018-02-19T23:04:41.322Z,25.77
2018-02-19T23:07:12.309Z,26.50
2018-02-19T23:09:42.808Z,25.90
2018-02-19T23:12:13.543Z,25.93
2018-02-19T23:14:44.302Z,26.00
2018-02-19T23:17:15.038Z,27.50
2018-02-19T23:19:45.863Z,25.80
2018-02-19T23:22:16.660Z,26.90
2018-02-19T23:24:47.438Z,26.60
2018-02-19T23:27:18.181Z,25.70
2018-02-19T23:29:49.115Z,25.97
2018-02-19T23:32:19.931Z,25.13
2018-02-19T23:34:50.658Z,26.23
2018-02-19T23:37:21.402Z,25.50
2018-02-19T23:39:52.393Z,25.37
2018-02-19T23:42:24.506Z,24.83
2018-02-19T23:44:56.202Z,25.47
2018-02-19T23:47:27.003Z,26.90
2018-02-19T23:49:57.950Z,29.00
2018-02-19T23:52:28.626Z,27.03
2018-02-19T23:55:00.387Z,25.23
2018-02-19T23:57:31.987Z,25.93
